Aviation Digital Data Service (ADDS)

Output produced by METARs form (0149 UTC 29 May 2022)
found at http://www.aviationweather.gov/metar/data/
 
METAR text: KHSE 290051Z AUTO 24006KT 7SM CLR 24/22 A2991 RMK AO2 SLP128 T02390217
Conditions at: KHSE (HATTERAS/MITCHEL, NC, US) observed 0051 UTC 29 May 2022
Temperature: 23.9°C (75°F)
Dewpoint: 21.7°C (71°F) [RH = 88%]
Pressure (altimeter): 29.91 inches Hg (1013.0 mb)
[Sea-level pressure: 1012.8 mb]
Winds: from the WSW (240 degrees) at 7 MPH (6 knots; 3.1 m/s)
Visibility: 7 miles (11 km)
Ceiling: at least 12,000 feet AGL
Clouds: sky clear below 12,000 feet AGL
Weather: automated observation with no human augmentation;
there may or may not be significant weather present at this time

METAR text: KHSE 282351Z AUTO 24005KT 4SM HZ FEW065 24/22 A2991 RMK AO2 SLP127 T02440217 10278 20244 53009
Conditions at: KHSE (HATTERAS/MITCHEL, NC, US) observed 2351 UTC 28 May 2022
Temperature: 24.4°C (76°F)
Dewpoint: 21.7°C (71°F) [RH = 85%]
Pressure (altimeter): 29.91 inches Hg (1013.0 mb)
[Sea-level pressure: 1012.7 mb]
Winds: from the WSW (240 degrees) at 6 MPH (5 knots; 2.6 m/s)
Visibility: 4 miles ( 6 km)
Ceiling: at least 12,000 feet AGL
Clouds: few clouds at 6500 feet AGL
Weather: HZ  (haze)